VVPB/HUI METAR and TAF weather

Enter ICAO airport designator
Station Type Date Time Source
VVPB METAR 2022/01/23 12:30 UTC NOAA

VVPB 231230Z 15002KT 6000 FEW015 BKN050 23/22 Q1011 NOSIG


Station Type Date Time Source
VVPB Decoded METAR 2022/01/23 12:30 UTC NOAA

Hue, Vietnam (VVPB) 16-24N 107-41E 17M
Jan 23, 2022 - 07:30 AM EST / 2022.01.23 1230 UTC
Wind: from the SSE (150 degrees) at 2 MPH (2 KT):0
Visibility: 3 mile(s):0
Sky conditions: mostly cloudy
Temperature: 73 F (23 C)
Dew Point: 71 F (22 C)
Relative Humidity: 94%
Pressure (altimeter): 29.85 in. Hg (1011 hPa)
ob: VVPB 231230Z 15002KT 6000 FEW015 BKN050 23/22 Q1011 NOSIG
cycle: 12

Station Type Date Time Source
VVPB TAF 2022/01/23 00:00 UTC NOAA

TAF
AMD VVPB 222300Z 2300/2324 06006KT 0700 FG SCT005 SCT013 BKN040
BECMG 2300/2301 1800 BR SCT012 SCT050
BECMG 2301/2302 6000 NSW
BECMG 2313/2314 4000 BR
BECMG 2321/2322 1200 BR

Example: see airport list